sensor_id;sensor_type;location;lat;lon;timestamp;pressure;altitude;pressure_sealevel;temperature;humidity
49030;BME280;43337;52.070;4.508;2023-08-21T00:00:48;102443.47;;;18.87;100.00
49030;BME280;43337;52.070;4.508;2023-08-21T00:03:13;102444.34;;;18.88;100.00
49030;BME280;43337;52.070;4.508;2023-08-21T00:05:38;102452.16;;;18.91;100.00
49030;BME280;43337;52.070;4.508;2023-08-21T00:08:04;102454.06;;;18.89;100.00
49030;BME280;43337;52.070;4.508;2023-08-21T00:10:30;102427.31;;;18.73;100.00
49030;BME280;43337;52.070;4.508;2023-08-21T00:12:55;102431.69;;;18.74;100.00
49030;BME280;43337;52.070;4.508;2023-08-21T00:15:21;102441.41;;;18.75;100.00
49030;BME280;43337;52.070;4.508;2023-08-21T00:17:46;102449.22;;;18.80;100.00
49030;BME280;43337;52.070;4.508;2023-08-21T00:20:12;102461.50;;;18.82;100.00
49030;BME280;43337;52.070;4.508;2023-08-21T00:22:38;102460.66;;;18.82;100.00
49030;BME280;43337;52.070;4.508;2023-08-21T00:25:03;102468.66;;;18.82;100.00
49030;BME280;43337;52.070;4.508;2023-08-21T00:27:29;102437.19;;;18.71;100.00
49030;BME280;43337;52.070;4.508;2023-08-21T00:29:54;102429.28;;;18.68;100.00
49030;BME280;43337;52.070;4.508;2023-08-21T00:32:21;102460.03;;;18.76;100.00
49030;BME280;43337;52.070;4.508;2023-08-21T00:34:46;102449.50;;;18.73;100.00
49030;BME280;43337;52.070;4.508;2023-08-21T00:37:12;102435.72;;;18.64;100.00
49030;BME280;43337;52.070;4.508;2023-08-21T00:39:37;102450.53;;;18.71;100.00
49030;BME280;43337;52.070;4.508;2023-08-21T00:42:02;102445.25;;;18.69;100.00
49030;BME280;43337;52.070;4.508;2023-08-21T00:44:28;102450.56;;;18.69;100.00
49030;BME280;43337;52.070;4.508;2023-08-21T00:46:56;102450.72;;;18.66;100.00
49030;BME280;43337;52.070;4.508;2023-08-21T00:49:21;102449.06;;;18.64;100.00
49030;BME280;43337;52.070;4.508;2023-08-21T00:51:48;102447.34;;;18.63;100.00
49030;BME280;43337;52.070;4.508;2023-08-21T00:54:15;102423.25;;;18.47;100.00
49030;BME280;43337;52.070;4.508;2023-08-21T00:56:40;102436.34;;;18.51;100.00
49030;BME280;43337;52.070;4.508;2023-08-21T00:59:07;102438.63;;;18.59;100.00
49030;BME280;43337;52.070;4.508;2023-08-21T01:01:33;102443.03;;;18.60;100.00
49030;BME280;43337;52.070;4.508;2023-08-21T01:03:59;102453.78;;;18.59;100.00
49030;BME280;43337;52.070;4.508;2023-08-21T01:06:25;102455.59;;;18.58;100.00
49030;BME280;43337;52.070;4.508;2023-08-21T01:14:42;102451.75;;;18.46;100.00
49030;BME280;43337;52.070;4.508;2023-08-21T01:17:10;102452.75;;;18.44;100.00
49030;BME280;43337;52.070;4.508;2023-08-21T01:19:41;102438.22;;;18.32;100.00
49030;BME280;43337;52.070;4.508;2023-08-21T01:22:07;102455.56;;;18.41;100.00
49030;BME280;43337;52.070;4.508;2023-08-21T01:24:32;102458.22;;;18.41;100.00
49030;BME280;43337;52.070;4.508;2023-08-21T01:26:58;102447.94;;;18.33;100.00
49030;BME280;43337;52.070;4.508;2023-08-21T01:29:24;102459.25;;;18.38;100.00
49030;BME280;43337;52.070;4.508;2023-08-21T01:34:29;102440.16;;;18.28;100.00
49030;BME280;43337;52.070;4.508;2023-08-21T01:36:59;102447.16;;;18.31;100.00
49030;BME280;43337;52.070;4.508;2023-08-21T01:39:25;102440.16;;;18.28;100.00
49030;BME280;43337;52.070;4.508;2023-08-21T01:41:50;102453.34;;;18.32;100.00
49030;BME280;43337;52.070;4.508;2023-08-21T01:44:15;102461.22;;;18.35;100.00
49030;BME280;43337;52.070;4.508;2023-08-21T01:46:41;102449.97;;;18.28;100.00
49030;BME280;43337;52.070;4.508;2023-08-21T01:49:08;102457.84;;;18.31;100.00
49030;BME280;43337;52.070;4.508;2023-08-21T01:51:33;102459.56;;;18.32;100.00
49030;BME280;43337;52.070;4.508;2023-08-21T01:53:58;102465.97;;;18.28;100.00
49030;BME280;43337;52.070;4.508;2023-08-21T01:56:24;102458.06;;;18.26;100.00
49030;BME280;43337;52.070;4.508;2023-08-21T01:58:50;102464.41;;;18.24;100.00
49030;BME280;43337;52.070;4.508;2023-08-21T02:01:15;102463.53;;;18.23;100.00
49030;BME280;43337;52.070;4.508;2023-08-21T02:03:43;102461.16;;;18.17;100.00
49030;BME280;43337;52.070;4.508;2023-08-21T02:06:08;102452.53;;;18.12;100.00
49030;BME280;43337;52.070;4.508;2023-08-21T02:08:33;102444.91;;;18.04;100.00
49030;BME280;43337;52.070;4.508;2023-08-21T02:10:59;102438.72;;;18.04;100.00
49030;BME280;43337;52.070;4.508;2023-08-21T02:13:24;102465.78;;;18.14;100.00
49030;BME280;43337;52.070;4.508;2023-08-21T02:15:50;102460.66;;;18.09;100.00
49030;BME280;43337;52.070;4.508;2023-08-21T02:18:15;102461.75;;;18.05;100.00
49030;BME280;43337;52.070;4.508;2023-08-21T02:20:41;102463.47;;;18.06;100.00
49030;BME280;43337;52.070;4.508;2023-08-21T02:23:07;102467.09;;;18.05;100.00
49030;BME280;43337;52.070;4.508;2023-08-21T02:25:33;102437.63;;;17.89;100.00
49030;BME280;43337;52.070;4.508;2023-08-21T02:27:58;102457.72;;;17.96;100.00
49030;BME280;43337;52.070;4.508;2023-08-21T02:30:23;102470.13;;;17.97;100.00
49030;BME280;43337;52.070;4.508;2023-08-21T02:32:53;102463.22;;;17.93;100.00
49030;BME280;43337;52.070;4.508;2023-08-21T02:35:22;102456.16;;;17.92;100.00
49030;BME280;43337;52.070;4.508;2023-08-21T02:37:49;102459.81;;;17.90;100.00
49030;BME280;43337;52.070;4.508;2023-08-21T02:40:14;102447.66;;;17.84;100.00
49030;BME280;43337;52.070;4.508;2023-08-21T02:42:39;102456.56;;;17.83;100.00
49030;BME280;43337;52.070;4.508;2023-08-21T02:45:05;102449.75;;;17.77;100.00
49030;BME280;43337;52.070;4.508;2023-08-21T02:47:38;102462.97;;;17.79;100.00
49030;BME280;43337;52.070;4.508;2023-08-21T02:50:05;102452.59;;;17.73;100.00
49030;BME280;43337;52.070;4.508;2023-08-21T02:52:30;102455.19;;;17.74;100.00
49030;BME280;43337;52.070;4.508;2023-08-21T02:54:56;102438.91;;;17.62;100.00
49030;BME280;43337;52.070;4.508;2023-08-21T02:57:23;102452.81;;;17.68;100.00
49030;BME280;43337;52.070;4.508;2023-08-21T02:59:48;102456.34;;;17.69;100.00
49030;BME280;43337;52.070;4.508;2023-08-21T03:02:14;102454.81;;;17.63;100.00
49030;BME280;43337;52.070;4.508;2023-08-21T03:04:39;102454.94;;;17.60;100.00
49030;BME280;43337;52.070;4.508;2023-08-21T03:07:05;102442.06;;;17.51;100.00
49030;BME280;43337;52.070;4.508;2023-08-21T03:09:30;102447.38;;;17.51;100.00
49030;BME280;43337;52.070;4.508;2023-08-21T03:11:55;102447.47;;;17.49;100.00
49030;BME280;43337;52.070;4.508;2023-08-21T03:14:21;102448.56;;;17.45;100.00
49030;BME280;43337;52.070;4.508;2023-08-21T03:16:46;102431.00;;;17.41;100.00
49030;BME280;43337;52.070;4.508;2023-08-21T03:19:12;102429.44;;;17.36;100.00
49030;BME280;43337;52.070;4.508;2023-08-21T03:21:37;102439.03;;;17.40;100.00
49030;BME280;43337;52.070;4.508;2023-08-21T03:24:03;102435.63;;;17.36;100.00
49030;BME280;43337;52.070;4.508;2023-08-21T03:26:28;102438.38;;;17.35;100.00
49030;BME280;43337;52.070;4.508;2023-08-21T03:28:53;102442.63;;;17.39;100.00
49030;BME280;43337;52.070;4.508;2023-08-21T03:31:19;102438.50;;;17.31;100.00
49030;BME280;43337;52.070;4.508;2023-08-21T03:33:44;102425.41;;;17.27;100.00
49030;BME280;43337;52.070;4.508;2023-08-21T03:36:09;102445.56;;;17.32;100.00
49030;BME280;43337;52.070;4.508;2023-08-21T03:38:35;102425.69;;;17.21;100.00
49030;BME280;43337;52.070;4.508;2023-08-21T03:41:01;102426.63;;;17.20;100.00
49030;BME280;43337;52.070;4.508;2023-08-21T03:43:27;102427.47;;;17.20;100.00
49030;BME280;43337;52.070;4.508;2023-08-21T03:45:52;102433.00;;;17.16;100.00
49030;BME280;43337;52.070;4.508;2023-08-21T03:48:18;102443.25;;;17.25;100.00
49030;BME280;43337;52.070;4.508;2023-08-21T03:50:43;102442.59;;;17.20;100.00
49030;BME280;43337;52.070;4.508;2023-08-21T03:53:09;102447.91;;;17.20;100.00
49030;BME280;43337;52.070;4.508;2023-08-21T03:55:35;102441.13;;;17.13;100.00
49030;BME280;43337;52.070;4.508;2023-08-21T03:58:00;102436.88;;;17.08;100.00
49030;BME280;43337;52.070;4.508;2023-08-21T04:00:26;102443.78;;;17.13;100.00
49030;BME280;43337;52.070;4.508;2023-08-21T04:02:51;102422.41;;;16.95;100.00
49030;BME280;43337;52.070;4.508;2023-08-21T04:05:16;102445.72;;;17.09;100.00
49030;BME280;43337;52.070;4.508;2023-08-21T04:07:42;102439.66;;;17.05;100.00
49030;BME280;43337;52.070;4.508;2023-08-21T04:10:07;102430.38;;;16.95;100.00
49030;BME280;43337;52.070;4.508;2023-08-21T04:12:33;102453.06;;;17.04;100.00
49030;BME280;43337;52.070;4.508;2023-08-21T04:14:58;102448.81;;;17.00;100.00
49030;BME280;43337;52.070;4.508;2023-08-21T04:17:24;102425.44;;;16.86;100.00
49030;BME280;43337;52.070;4.508;2023-08-21T04:19:50;102449.00;;;16.95;100.00
49030;BME280;43337;52.070;4.508;2023-08-21T04:22:15;102429.97;;;16.84;100.00
49030;BME280;43337;52.070;4.508;2023-08-21T04:24:41;102456.19;;;16.93;100.00
49030;BME280;43337;52.070;4.508;2023-08-21T04:27:07;102424.06;;;16.77;100.00
49030;BME280;43337;52.070;4.508;2023-08-21T04:29:34;102439.75;;;16.83;100.00
49030;BME280;43337;52.070;4.508;2023-08-21T04:32:00;102452.00;;;16.88;100.00
49030;BME280;43337;52.070;4.508;2023-08-21T04:34:25;102447.66;;;16.85;100.00
49030;BME280;43337;52.070;4.508;2023-08-21T04:36:50;102435.69;;;16.75;100.00
49030;BME280;43337;52.070;4.508;2023-08-21T04:39:16;102446.81;;;16.84;100.00
49030;BME280;43337;52.070;4.508;2023-08-21T04:41:41;102431.38;;;16.71;100.00
49030;BME280;43337;52.070;4.508;2023-08-21T04:44:07;102452.16;;;16.83;100.00
49030;BME280;43337;52.070;4.508;2023-08-21T04:46:32;102441.06;;;16.73;100.00
49030;BME280;43337;52.070;4.508;2023-08-21T04:48:57;102461.91;;;16.84;100.00
49030;BME280;43337;52.070;4.508;2023-08-21T04:51:23;102442.78;;;16.74;100.00
49030;BME280;43337;52.070;4.508;2023-08-21T04:53:48;102429.88;;;16.65;100.00
49030;BME280;43337;52.070;4.508;2023-08-21T04:56:14;102465.53;;;16.81;100.00
49030;BME280;43337;52.070;4.508;2023-08-21T04:58:39;102467.28;;;16.82;100.00
49030;BME280;43337;52.070;4.508;2023-08-21T05:01:05;102462.97;;;16.80;100.00
49030;BME280;43337;52.070;4.508;2023-08-21T05:03:30;102463.00;;;16.78;100.00
49030;BME280;43337;52.070;4.508;2023-08-21T05:05:56;102460.44;;;16.77;100.00
49030;BME280;43337;52.070;4.508;2023-08-21T05:08:25;102475.25;;;16.82;100.00
49030;BME280;43337;52.070;4.508;2023-08-21T05:10:58;102463.00;;;16.78;100.00
49030;BME280;43337;52.070;4.508;2023-08-21T05:13:24;102469.06;;;16.82;100.00
49030;BME280;43337;52.070;4.508;2023-08-21T05:15:58;102443.75;;;16.72;100.00
49030;BME280;43337;52.070;4.508;2023-08-21T05:18:24;102465.47;;;16.83;100.00
49030;BME280;43337;52.070;4.508;2023-08-21T05:20:50;102464.69;;;16.81;100.00
49030;BME280;43337;52.070;4.508;2023-08-21T05:23:16;102466.50;;;16.80;100.00
49030;BME280;43337;52.070;4.508;2023-08-21T05:25:42;102469.72;;;16.87;100.00
49030;BME280;43337;52.070;4.508;2023-08-21T05:28:08;102474.16;;;16.88;100.00
49030;BME280;43337;52.070;4.508;2023-08-21T05:30:35;102475.78;;;16.91;100.00
49030;BME280;43337;52.070;4.508;2023-08-21T05:33:01;102467.56;;;16.97;100.00
49030;BME280;43337;52.070;4.508;2023-08-21T05:35:26;102479.91;;;16.98;100.00
49030;BME280;43337;52.070;4.508;2023-08-21T05:37:51;102447.66;;;16.85;100.00
49030;BME280;43337;52.070;4.508;2023-08-21T05:40:17;102473.53;;;17.02;100.00
49030;BME280;43337;52.070;4.508;2023-08-21T05:42:42;102453.44;;;16.95;100.00
49030;BME280;43337;52.070;4.508;2023-08-21T05:45:08;102477.44;;;17.14;100.00
49030;BME280;43337;52.070;4.508;2023-08-21T05:47:33;102476.38;;;17.18;100.00
49030;BME280;43337;52.070;4.508;2023-08-21T05:49:59;102477.94;;;17.23;100.00
49030;BME280;43337;52.070;4.508;2023-08-21T05:52:24;102458.63;;;17.18;100.00
49030;BME280;43337;52.070;4.508;2023-08-21T05:54:50;102479.31;;;17.32;100.00
49030;BME280;43337;52.070;4.508;2023-08-21T05:57:15;102456.22;;;17.32;100.00
49030;BME280;43337;52.070;4.508;2023-08-21T05:59:44;102463.06;;;17.38;100.00
49030;BME280;43337;52.070;4.508;2023-08-21T06:02:10;102476.78;;;17.49;100.00
49030;BME280;43337;52.070;4.508;2023-08-21T06:04:37;102469.28;;;17.57;100.00
49030;BME280;43337;52.070;4.508;2023-08-21T06:07:03;102484.63;;;17.71;100.00
49030;BME280;43337;52.070;4.508;2023-08-21T06:09:29;102486.69;;;17.85;100.00
49030;BME280;43337;52.070;4.508;2023-08-21T06:11:55;102482.81;;;17.92;100.00
49030;BME280;43337;52.070;4.508;2023-08-21T06:14:20;102476.16;;;18.01;100.00
49030;BME280;43337;52.070;4.508;2023-08-21T06:16:53;102469.47;;;18.11;100.00
49030;BME280;43337;52.070;4.508;2023-08-21T06:19:18;102458.50;;;18.17;100.00
49030;BME280;43337;52.070;4.508;2023-08-21T06:21:44;102491.59;;;18.49;100.00
49030;BME280;43337;52.070;4.508;2023-08-21T06:24:09;102485.78;;;18.59;100.00
49030;BME280;43337;52.070;4.508;2023-08-21T06:26:35;102475.53;;;18.68;100.00
49030;BME280;43337;52.070;4.508;2023-08-21T06:29:00;102481.91;;;18.83;100.00
49030;BME280;43337;52.070;4.508;2023-08-21T06:31:25;102477.06;;;18.91;100.00
49030;BME280;43337;52.070;4.508;2023-08-21T06:33:51;102488.69;;;19.08;100.00
49030;BME280;43337;52.070;4.508;2023-08-21T06:36:16;102475.41;;;19.06;100.00
49030;BME280;43337;52.070;4.508;2023-08-21T06:38:41;102485.47;;;19.18;100.00
49030;BME280;43337;52.070;4.508;2023-08-21T06:41:07;102496.09;;;19.36;100.00
49030;BME280;43337;52.070;4.508;2023-08-21T06:43:32;102477.50;;;19.34;100.00
49030;BME280;43337;52.070;4.508;2023-08-21T06:45:57;102476.44;;;19.37;100.00
49030;BME280;43337;52.070;4.508;2023-08-21T06:48:23;102498.34;;;19.61;100.00
49030;BME280;43337;52.070;4.508;2023-08-21T06:50:48;102484.13;;;19.60;100.00
49030;BME280;43337;52.070;4.508;2023-08-21T06:53:14;102488.63;;;19.75;100.00
49030;BME280;43337;52.070;4.508;2023-08-21T06:55:39;102499.59;;;19.87;100.00
49030;BME280;43337;52.070;4.508;2023-08-21T06:58:04;102507.28;;;19.93;100.00
49030;BME280;43337;52.070;4.508;2023-08-21T07:00:30;102499.09;;;19.96;100.00
49030;BME280;43337;52.070;4.508;2023-08-21T07:02:55;102499.53;;;20.04;100.00
49030;BME280;43337;52.070;4.508;2023-08-21T07:05:20;102497.47;;;20.09;100.00
49030;BME280;43337;52.070;4.508;2023-08-21T07:07:46;102482.28;;;20.10;100.00
49030;BME280;43337;52.070;4.508;2023-08-21T07:10:11;102481.06;;;20.15;100.00
49030;BME280;43337;52.070;4.508;2023-08-21T07:12:37;102509.19;;;20.38;100.00
49030;BME280;43337;52.070;4.508;2023-08-21T07:15:02;102494.00;;;20.39;100.00
49030;BME280;43337;52.070;4.508;2023-08-21T07:17:28;102493.25;;;20.53;100.00
49030;BME280;43337;52.070;4.508;2023-08-21T07:19:53;102498.22;;;20.59;100.00
49030;BME280;43337;52.070;4.508;2023-08-21T07:22:19;102488.47;;;20.58;100.00
49030;BME280;43337;52.070;4.508;2023-08-21T07:24:45;102498.47;;;20.70;100.00
49030;BME280;43337;52.070;4.508;2023-08-21T07:27:11;102481.81;;;20.65;100.00
49030;BME280;43337;52.070;4.508;2023-08-21T07:29:36;102504.72;;;20.85;100.00
49030;BME280;43337;52.070;4.508;2023-08-21T07:32:02;102509.75;;;20.91;100.00
49030;BME280;43337;52.070;4.508;2023-08-21T07:34:27;102498.75;;;20.95;100.00
49030;BME280;43337;52.070;4.508;2023-08-21T07:36:52;102508.22;;;21.01;100.00
49030;BME280;43337;52.070;4.508;2023-08-21T07:39:18;102480.06;;;20.94;100.00
49030;BME280;43337;52.070;4.508;2023-08-21T07:41:43;102511.50;;;21.20;100.00
49030;BME280;43337;52.070;4.508;2023-08-21T07:44:08;102519.00;;;21.30;100.00
49030;BME280;43337;52.070;4.508;2023-08-21T07:46:35;102514.25;;;21.35;100.00
49030;BME280;43337;52.070;4.508;2023-08-21T07:49:00;102511.59;;;21.49;100.00
49030;BME280;43337;52.070;4.508;2023-08-21T07:51:26;102521.72;;;21.58;100.00
49030;BME280;43337;52.070;4.508;2023-08-21T07:53:51;102514.72;;;21.56;100.00
49030;BME280;43337;52.070;4.508;2023-08-21T07:56:17;102519.41;;;21.66;100.00
49030;BME280;43337;52.070;4.508;2023-08-21T07:58:42;102513.88;;;21.69;100.00
49030;BME280;43337;52.070;4.508;2023-08-21T08:01:07;102519.13;;;21.85;100.00
49030;BME280;43337;52.070;4.508;2023-08-21T08:03:33;102518.34;;;21.98;100.00
49030;BME280;43337;52.070;4.508;2023-08-21T08:05:58;102525.03;;;22.05;100.00
49030;BME280;43337;52.070;4.508;2023-08-21T08:08:24;102510.88;;;22.03;100.00
49030;BME280;43337;52.070;4.508;2023-08-21T08:10:49;102512.19;;;22.10;100.00
49030;BME280;43337;52.070;4.508;2023-08-21T08:13:15;102530.31;;;22.21;100.00
49030;BME280;43337;52.070;4.508;2023-08-21T08:15:40;102524.00;;;22.22;100.00
49030;BME280;43337;52.070;4.508;2023-08-21T08:18:10;102508.00;;;22.20;100.00
49030;BME280;43337;52.070;4.508;2023-08-21T08:20:36;102532.09;;;22.34;100.00
49030;BME280;43337;52.070;4.508;2023-08-21T08:23:01;102525.97;;;22.32;100.00
49030;BME280;43337;52.070;4.508;2023-08-21T08:25:27;102523.19;;;22.34;100.00
49030;BME280;43337;52.070;4.508;2023-08-21T08:27:52;102536.34;;;22.51;100.00
49030;BME280;43337;52.070;4.508;2023-08-21T08:30:17;102521.75;;;22.55;100.00
49030;BME280;43337;52.070;4.508;2023-08-21T08:32:43;102522.69;;;22.69;100.00
49030;BME280;43337;52.070;4.508;2023-08-21T08:35:14;102524.00;;;22.76;100.00
49030;BME280;43337;52.070;4.508;2023-08-21T08:37:41;102511.97;;;22.81;100.00
49030;BME280;43337;52.070;4.508;2023-08-21T08:40:07;102529.66;;;22.98;100.00
49030;BME280;43337;52.070;4.508;2023-08-21T08:42:34;102501.00;;;22.99;100.00
49030;BME280;43337;52.070;4.508;2023-08-21T08:45:02;102516.78;;;23.16;100.00
49030;BME280;43337;52.070;4.508;2023-08-21T08:47:30;102508.97;;;23.26;100.00
49030;BME280;43337;52.070;4.508;2023-08-21T08:50:04;102505.19;;;23.28;100.00
49030;BME280;43337;52.070;4.508;2023-08-21T08:52:39;102515.19;;;23.39;100.00
49030;BME280;43337;52.070;4.508;2023-08-21T08:55:05;102514.53;;;23.35;100.00
49030;BME280;43337;52.070;4.508;2023-08-21T08:57:35;102503.47;;;23.27;100.00
49030;BME280;43337;52.070;4.508;2023-08-21T09:00:01;102519.06;;;23.48;100.00
49030;BME280;43337;52.070;4.508;2023-08-21T09:02:27;102500.69;;;23.42;100.00
49030;BME280;43337;52.070;4.508;2023-08-21T09:04:53;102509.28;;;23.47;100.00
49030;BME280;43337;52.070;4.508;2023-08-21T09:07:18;102531.75;;;23.58;100.00
49030;BME280;43337;52.070;4.508;2023-08-21T09:09:47;102517.66;;;23.55;100.00
49030;BME280;43337;52.070;4.508;2023-08-21T09:12:14;102515.28;;;23.63;100.00
49030;BME280;43337;52.070;4.508;2023-08-21T09:14:41;102512.00;;;23.72;100.00
49030;BME280;43337;52.070;4.508;2023-08-21T09:17:07;102522.72;;;23.85;100.00
49030;BME280;43337;52.070;4.508;2023-08-21T09:19:33;102528.41;;;23.93;100.00
49030;BME280;43337;52.070;4.508;2023-08-21T09:21:59;102519.34;;;23.94;100.00
49030;BME280;43337;52.070;4.508;2023-08-21T09:24:24;102524.94;;;24.04;100.00
49030;BME280;43337;52.070;4.508;2023-08-21T09:26:50;102521.34;;;24.16;100.00
49030;BME280;43337;52.070;4.508;2023-08-21T09:29:15;102492.44;;;24.07;100.00
49030;BME280;43337;52.070;4.508;2023-08-21T09:31:42;102517.75;;;24.28;100.00
49030;BME280;43337;52.070;4.508;2023-08-21T09:34:10;102501.72;;;24.27;100.00
49030;BME280;43337;52.070;4.508;2023-08-21T09:36:38;102510.06;;;24.35;100.00
49030;BME280;43337;52.070;4.508;2023-08-21T09:39:04;102496.41;;;24.38;100.00
49030;BME280;43337;52.070;4.508;2023-08-21T09:41:31;102509.25;;;24.58;100.00
49030;BME280;43337;52.070;4.508;2023-08-21T09:44:00;102504.75;;;24.70;100.00
49030;BME280;43337;52.070;4.508;2023-08-21T09:46:26;102514.44;;;24.73;100.00
49030;BME280;43337;52.070;4.508;2023-08-21T09:48:53;102494.13;;;24.69;100.00
49030;BME280;43337;52.070;4.508;2023-08-21T09:51:20;102496.00;;;24.79;100.00
49030;BME280;43337;52.070;4.508;2023-08-21T09:53:48;102485.28;;;24.67;100.00
49030;BME280;43337;52.070;4.508;2023-08-21T09:56:14;102495.25;;;24.77;100.00
49030;BME280;43337;52.070;4.508;2023-08-21T09:58:39;102489.63;;;24.80;100.00
49030;BME280;43337;52.070;4.508;2023-08-21T10:01:06;102483.75;;;24.87;100.00
49030;BME280;43337;52.070;4.508;2023-08-21T10:03:38;102481.56;;;24.92;100.00
49030;BME280;43337;52.070;4.508;2023-08-21T10:06:04;102488.22;;;24.99;100.00
49030;BME280;43337;52.070;4.508;2023-08-21T10:08:31;102493.41;;;25.13;100.00
49030;BME280;43337;52.070;4.508;2023-08-21T10:10:58;102496.47;;;25.20;100.00
49030;BME280;43337;52.070;4.508;2023-08-21T10:13:25;102491.84;;;25.22;100.00
49030;BME280;43337;52.070;4.508;2023-08-21T10:15:51;102497.34;;;25.31;100.00
49030;BME280;43337;52.070;4.508;2023-08-21T10:18:20;102521.28;;;25.47;100.00
49030;BME280;43337;52.070;4.508;2023-08-21T10:20:46;102510.97;;;25.30;100.00
49030;BME280;43337;52.070;4.508;2023-08-21T10:23:32;102518.78;;;25.11;99.81
49030;BME280;43337;52.070;4.508;2023-08-21T10:26:03;102490.97;;;24.86;100.00
49030;BME280;43337;52.070;4.508;2023-08-21T10:29:00;102509.34;;;24.81;95.32
49030;BME280;43337;52.070;4.508;2023-08-21T10:31:35;102503.69;;;24.73;100.00
49030;BME280;43337;52.070;4.508;2023-08-21T10:34:08;102498.88;;;24.65;100.00
49030;BME280;43337;52.070;4.508;2023-08-21T10:39:19;102496.97;;;24.54;100.00
49030;BME280;43337;52.070;4.508;2023-08-21T10:41:53;102497.38;;;24.61;100.00
49030;BME280;43337;52.070;4.508;2023-08-21T10:44:49;102501.97;;;24.72;98.51
49030;BME280;43337;52.070;4.508;2023-08-21T10:49:57;102494.06;;;24.93;100.00
49030;BME280;43337;52.070;4.508;2023-08-21T10:52:36;102498.59;;;24.92;98.20
49030;BME280;43337;52.070;4.508;2023-08-21T10:55:02;102493.69;;;24.97;100.00
49030;BME280;43337;52.070;4.508;2023-08-21T10:57:32;102489.00;;;25.12;100.00
49030;BME280;43337;52.070;4.508;2023-08-21T11:00:00;102468.19;;;25.14;97.57
49030;BME280;43337;52.070;4.508;2023-08-21T11:02:29;102494.41;;;25.35;97.27
49030;BME280;43337;52.070;4.508;2023-08-21T11:04:55;102497.00;;;25.47;98.46
49030;BME280;43337;52.070;4.508;2023-08-21T11:07:21;102500.44;;;25.61;98.27
49030;BME280;43337;52.070;4.508;2023-08-21T11:09:47;102478.50;;;25.54;97.33
49030;BME280;43337;52.070;4.508;2023-08-21T11:12:15;102486.34;;;25.68;98.22
49030;BME280;43337;52.070;4.508;2023-08-21T11:14:41;102488.66;;;25.73;98.28
49030;BME280;43337;52.070;4.508;2023-08-21T11:17:07;102490.78;;;25.80;99.00
49030;BME280;43337;52.070;4.508;2023-08-21T11:19:34;102497.88;;;25.93;99.14
49030;BME280;43337;52.070;4.508;2023-08-21T11:22:00;102497.63;;;25.96;97.69
49030;BME280;43337;52.070;4.508;2023-08-21T11:24:30;102491.84;;;26.00;96.46
49030;BME280;43337;52.070;4.508;2023-08-21T11:26:57;102474.56;;;26.03;96.11
49030;BME280;43337;52.070;4.508;2023-08-21T11:29:22;102497.44;;;26.20;95.30
49030;BME280;43337;52.070;4.508;2023-08-21T11:31:48;102482.47;;;26.16;94.62
49030;BME280;43337;52.070;4.508;2023-08-21T11:34:18;102496.09;;;26.25;95.30
49030;BME280;43337;52.070;4.508;2023-08-21T11:36:44;102485.16;;;26.27;94.38
49030;BME280;43337;52.070;4.508;2023-08-21T11:39:09;102506.59;;;26.40;93.95
49030;BME280;43337;52.070;4.508;2023-08-21T11:41:53;102499.88;;;26.45;89.70
49030;BME280;43337;52.070;4.508;2023-08-21T11:44:18;102494.78;;;26.52;90.96
49030;BME280;43337;52.070;4.508;2023-08-21T11:46:45;102475.31;;;26.48;89.08
49030;BME280;43337;52.070;4.508;2023-08-21T11:49:10;102484.72;;;26.54;89.39
49030;BME280;43337;52.070;4.508;2023-08-21T11:51:39;102482.63;;;26.58;86.66
49030;BME280;43337;52.070;4.508;2023-08-21T11:54:05;102466.06;;;26.51;83.47
49030;BME280;43337;52.070;4.508;2023-08-21T11:56:31;102489.13;;;26.55;81.91
49030;BME280;43337;52.070;4.508;2023-08-21T11:58:56;102487.41;;;26.54;81.65
49030;BME280;43337;52.070;4.508;2023-08-21T12:01:24;102487.41;;;26.54;81.06
49030;BME280;43337;52.070;4.508;2023-08-21T12:03:50;102479.78;;;26.59;83.28
49030;BME280;43337;52.070;4.508;2023-08-21T12:06:22;102472.53;;;26.60;82.82
49030;BME280;43337;52.070;4.508;2023-08-21T12:08:47;102484.16;;;26.71;81.66
49030;BME280;43337;52.070;4.508;2023-08-21T12:11:13;102480.31;;;26.74;80.27
49030;BME280;43337;52.070;4.508;2023-08-21T12:13:39;102481.66;;;26.80;79.24
49030;BME280;43337;52.070;4.508;2023-08-21T12:16:05;102472.56;;;26.81;78.75
49030;BME280;43337;52.070;4.508;2023-08-21T12:18:30;102465.09;;;26.73;77.95
49030;BME280;43337;52.070;4.508;2023-08-21T12:20:55;102467.16;;;26.81;79.02
49030;BME280;43337;52.070;4.508;2023-08-21T12:23:21;102467.59;;;26.86;79.47
49030;BME280;43337;52.070;4.508;2023-08-21T12:25:46;102464.63;;;26.89;80.33
49030;BME280;43337;52.070;4.508;2023-08-21T12:28:12;102478.53;;;27.05;81.22
49030;BME280;43337;52.070;4.508;2023-08-21T12:30:37;102482.97;;;27.06;81.87
49030;BME280;43337;52.070;4.508;2023-08-21T12:33:03;102473.59;;;27.10;79.93
49030;BME280;43337;52.070;4.508;2023-08-21T12:35:29;102464.91;;;27.07;78.79
49030;BME280;43337;52.070;4.508;2023-08-21T12:37:57;102488.19;;;27.19;76.91
49030;BME280;43337;52.070;4.508;2023-08-21T12:40:22;102491.56;;;27.11;77.98
49030;BME280;43337;52.070;4.508;2023-08-21T12:42:48;102479.91;;;27.11;78.31
49030;BME280;43337;52.070;4.508;2023-08-21T12:45:13;102487.13;;;27.10;79.93
49030;BME280;43337;52.070;4.508;2023-08-21T12:47:38;102491.03;;;27.17;79.32
49030;BME280;43337;52.070;4.508;2023-08-21T12:50:06;102495.91;;;27.23;79.68